createdAt,value
2023-10-09T05:45:48.055Z,101874.34
2023-10-09T05:48:52.190Z,101892.59
2023-10-09T05:51:45.006Z,101891.13
2023-10-09T05:54:51.017Z,101890.66
2023-10-09T05:57:51.652Z,101885.22
2023-10-09T06:00:57.197Z,101878.75
2023-10-09T06:03:56.640Z,101867.41
2023-10-09T06:06:47.186Z,101847.22
2023-10-09T06:09:47.960Z,101837.16
2023-10-09T06:12:54.707Z,101823.69
2023-10-09T06:15:52.741Z,101816.44
2023-10-09T06:18:44.598Z,101825.63
2023-10-09T06:21:56.991Z,101853.59
2023-10-09T06:24:44.117Z,101833.13
2023-10-09T06:27:58.125Z,101831.50
2023-10-09T06:30:48.385Z,101828.41
2023-10-09T06:33:53.815Z,101841.94
2023-10-09T06:36:53.933Z,101833.38
2023-10-09T06:39:51.734Z,101828.22
2023-10-09T06:42:52.348Z,101826.75
2023-10-09T06:58:27.654Z,101885.91
2023-10-09T07:01:30.052Z,101896.38
2023-10-09T07:04:42.853Z,101896.34
2023-10-09T07:07:36.075Z,101893.56
2023-10-09T07:10:33.737Z,101895.31
2023-10-09T07:13:25.481Z,101890.03
2023-10-09T07:16:29.804Z,101886.22
2023-10-09T07:19:36.366Z,101887.06
2023-10-09T07:22:30.427Z,101899.34
2023-10-09T07:25:28.905Z,101877.59
2023-10-09T07:28:30.479Z,101839.31
2023-10-09T07:31:41.138Z,101843.63
2023-10-09T07:34:53.789Z,101834.34
2023-10-09T07:37:43.064Z,101827.41
2023-10-09T07:40:32.772Z,101808.88
2023-10-09T07:43:19.100Z,101788.16
2023-10-09T07:46:25.865Z,101797.25
2023-10-09T07:49:15.344Z,101790.84
2023-10-09T07:52:02.077Z,101809.44
2023-10-09T07:54:54.120Z,101810.84
2023-10-09T07:57:41.140Z,101835.16
2023-10-09T08:00:59.838Z,101877.84
2023-10-09T08:03:58.384Z,101856.28
2023-10-09T08:07:04.311Z,101861.47
2023-10-09T08:10:18.724Z,101868.31
2023-10-09T08:13:28.895Z,101875.91
2023-10-09T08:16:21.480Z,101876.41
2023-10-09T08:19:33.520Z,101884.31
2023-10-09T08:22:40.175Z,101887.16
2023-10-09T08:25:29.090Z,101893.06
2023-10-09T08:28:38.988Z,101913.22
2023-10-09T08:31:46.301Z,101907.53
2023-10-09T08:37:40.981Z,101919.19
2023-10-09T08:40:34.646Z,101929.50
2023-10-09T08:43:22.155Z,101925.34
2023-10-09T08:46:09.641Z,101914.72
2023-10-09T08:48:57.677Z,101927.19
2023-10-09T08:51:43.793Z,101926.75
2023-10-09T08:54:34.363Z,101928.41
2023-10-09T08:57:21.122Z,101946.53
2023-10-09T09:00:12.634Z,101948.00
2023-10-09T09:03:01.369Z,101955.34
2023-10-09T09:05:50.636Z,101951.44
2023-10-09T09:08:37.856Z,101953.44
2023-10-09T09:11:26.437Z,101944.22
2023-10-09T09:14:19.883Z,101947.00
2023-10-09T09:17:12.230Z,101944.56
2023-10-09T09:19:59.917Z,101948.16
2023-10-09T09:22:55.811Z,101948.75
2023-10-09T09:25:45.734Z,101965.03
2023-10-09T09:28:40.224Z,101976.03
2023-10-09T09:31:27.918Z,101975.25
2023-10-09T09:34:18.143Z,101961.88
2023-10-09T09:37:05.956Z,101965.44
2023-10-09T09:39:56.305Z,101962.78
2023-10-09T09:42:46.818Z,101961.84
2023-10-09T09:45:35.490Z,101959.47
2023-10-09T09:48:21.934Z,101968.41
2023-10-09T09:51:09.746Z,101954.69
2023-10-09T09:53:56.314Z,101963.22
2023-10-09T09:56:46.202Z,101970.72
2023-10-09T09:59:36.532Z,101960.09
2023-10-09T10:02:35.798Z,101968.13
2023-10-09T10:05:22.989Z,101957.69
2023-10-09T10:08:14.054Z,101959.66
2023-10-09T10:11:06.743Z,101960.84
2023-10-09T10:14:00.331Z,101954.81
2023-10-09T10:17:02.687Z,101971.34
2023-10-09T10:20:26.269Z,101956.09
2023-10-09T10:23:20.133Z,101968.22
2023-10-09T10:26:19.356Z,101968.28
2023-10-09T10:29:27.676Z,101970.69
2023-10-09T11:01:59.922Z,101971.19
2023-10-09T11:04:54.987Z,101971.75
2023-10-09T11:07:42.219Z,101980.50
2023-10-09T11:10:32.830Z,101984.38
2023-10-09T11:13:34.311Z,101968.03
2023-10-09T13:14:26.593Z,101962.44
2023-10-09T13:17:14.552Z,101954.59
2023-10-09T13:20:01.207Z,101956.44
2023-10-09T13:22:49.630Z,101958.88
2023-10-09T13:25:40.881Z,101959.25
2023-10-09T13:28:27.529Z,101962.63
2023-10-09T13:31:16.330Z,101973.06
2023-10-09T13:34:04.089Z,101966.53
2023-10-09T13:36:54.188Z,101964.13
2023-10-09T13:39:42.076Z,101966.84
2023-10-09T13:42:28.852Z,101971.03
2023-10-09T13:45:17.726Z,101963.69
2023-10-09T13:48:06.200Z,101966.44
2023-10-09T13:50:59.895Z,101963.94
2023-10-09T13:53:49.874Z,101953.69
2023-10-09T13:56:40.263Z,101954.03
2023-10-09T13:59:27.003Z,101947.81
2023-10-09T14:02:19.410Z,101954.47
2023-10-09T14:05:09.633Z,101945.63
2023-10-09T14:08:01.221Z,101956.28
2023-10-09T14:10:50.746Z,101951.38
2023-10-09T14:13:39.158Z,101951.50
2023-10-09T14:16:28.680Z,101950.38
2023-10-09T14:19:22.183Z,101959.34
2023-10-09T14:22:11.818Z,101958.41
2023-10-09T14:24:58.882Z,101954.28
2023-10-09T14:27:46.503Z,101948.53
2023-10-09T14:30:34.970Z,101945.47
2023-10-09T14:33:24.617Z,101938.41
2023-10-09T14:36:17.897Z,101933.19
2023-10-09T14:39:07.946Z,101941.19
2023-10-09T14:41:55.559Z,101934.38
2023-10-09T14:44:42.095Z,101927.09
2023-10-09T14:47:28.322Z,101931.16
2023-10-09T14:50:16.382Z,101929.16
2023-10-09T14:53:02.925Z,101936.91
2023-10-09T14:55:56.412Z,101947.53
2023-10-09T14:58:43.387Z,101942.09
2023-10-09T15:01:32.167Z,101942.28
2023-10-09T15:04:18.700Z,101948.09
2023-10-09T15:07:07.963Z,101939.81
2023-10-09T15:10:05.079Z,101950.69
2023-10-09T15:12:54.925Z,101953.56
2023-10-09T15:15:46.524Z,101945.03
2023-10-09T15:18:39.626Z,101938.50
2023-10-09T15:21:27.659Z,101936.28
2023-10-09T15:24:20.466Z,101939.72
2023-10-09T15:27:10.602Z,101938.41
2023-10-09T15:30:01.257Z,101933.63
2023-10-09T15:32:51.398Z,101941.13
2023-10-09T15:35:39.752Z,101937.72
2023-10-09T15:38:26.436Z,101953.53
2023-10-09T15:41:12.841Z,101952.53
2023-10-09T15:44:00.379Z,101955.13
2023-10-09T15:46:48.226Z,101961.75
2023-10-09T15:49:35.009Z,101957.72
2023-10-09T15:52:21.852Z,101960.84
2023-10-09T15:55:14.372Z,101948.16
2023-10-09T15:58:00.961Z,101958.31
2023-10-09T16:00:47.812Z,101954.97
2023-10-09T16:03:35.787Z,101960.72
2023-10-09T16:06:22.308Z,101957.91
2023-10-09T16:09:12.421Z,101962.91
2023-10-09T16:11:58.604Z,101964.84
2023-10-09T16:14:45.260Z,101968.50
2023-10-09T16:17:31.913Z,101976.00
2023-10-09T16:20:26.760Z,101976.78
2023-10-09T16:23:18.513Z,101973.06
2023-10-09T16:26:08.237Z,101984.91
2023-10-09T16:28:54.869Z,101982.94
2023-10-09T16:31:42.233Z,101988.59
2023-10-09T16:34:30.351Z,101990.84
2023-10-09T16:37:19.404Z,102002.06
2023-10-09T16:40:12.336Z,101994.41
2023-10-09T16:43:02.205Z,102000.66
2023-10-09T16:45:48.909Z,101996.53
2023-10-09T16:48:38.404Z,102000.38
2023-10-09T16:51:25.754Z,102010.25
2023-10-09T16:54:16.842Z,102001.88
2023-10-09T16:57:03.151Z,102017.97
2023-10-09T16:59:53.016Z,102014.28
2023-10-09T17:02:41.444Z,102018.88
2023-10-09T17:05:34.137Z,102015.28
2023-10-09T17:08:20.849Z,102014.44
2023-10-09T17:11:11.108Z,102001.09
2023-10-09T17:13:58.790Z,102005.63
2023-10-09T17:16:46.439Z,102003.00
2023-10-09T17:19:33.840Z,102007.44
2023-10-09T17:22:20.159Z,102011.28
2023-10-09T17:25:07.496Z,102012.91
2023-10-09T17:27:55.643Z,102016.22
2023-10-09T17:30:42.365Z,102020.28
2023-10-09T17:33:28.703Z,102011.38
2023-10-09T17:36:17.837Z,102014.94
2023-10-09T17:39:05.962Z,102014.19
2023-10-09T17:41:54.177Z,102011.78
2023-10-09T17:44:41.813Z,102015.69
2023-10-09T17:47:28.629Z,102018.59
2023-10-09T17:50:15.516Z,102018.88
2023-10-09T17:53:05.780Z,102022.16
2023-10-09T17:55:54.586Z,102026.47
2023-10-09T17:58:45.217Z,102018.31
2023-10-09T18:01:34.110Z,102023.44
2023-10-09T18:04:20.333Z,102020.13
2023-10-09T18:07:06.928Z,102025.22
2023-10-09T18:09:54.300Z,102022.78
2023-10-09T18:12:41.092Z,102026.88
2023-10-09T18:15:30.197Z,102034.28
2023-10-09T18:18:20.813Z,102034.53
2023-10-09T18:21:09.095Z,102032.25
2023-10-09T18:23:59.478Z,102028.50
2023-10-09T18:26:47.123Z,102029.13
2023-10-09T18:29:33.320Z,102039.13
2023-10-09T18:32:24.579Z,102030.59
2023-10-09T18:35:17.084Z,102042.00
2023-10-09T18:38:05.973Z,102036.38
2023-10-09T18:40:52.971Z,102044.38
2023-10-09T18:43:41.188Z,102044.47
2023-10-09T18:46:27.836Z,102046.19
2023-10-09T18:49:14.698Z,102039.97
2023-10-09T18:52:02.969Z,102047.63
2023-10-09T18:54:49.433Z,102048.13
2023-10-09T18:57:36.825Z,102046.09
2023-10-09T19:00:31.384Z,102039.94
2023-10-09T19:03:20.553Z,102041.13
2023-10-09T19:06:09.411Z,102044.56
2023-10-09T19:08:59.552Z,102046.97
2023-10-09T19:11:46.101Z,102058.09
2023-10-09T19:14:32.631Z,102050.06
2023-10-09T19:17:20.250Z,102053.72
2023-10-09T19:20:11.760Z,102059.50
2023-10-09T19:23:01.562Z,102056.94
2023-10-09T19:25:49.603Z,102061.13
2023-10-09T19:28:41.650Z,102059.66
2023-10-09T19:31:33.237Z,102061.31
2023-10-09T19:34:22.295Z,102066.78
2023-10-09T19:37:09.200Z,102066.59
2023-10-09T19:39:55.477Z,102065.31
2023-10-09T19:42:43.905Z,102063.81
2023-10-09T19:45:31.501Z,102065.53
2023-10-09T19:48:18.074Z,102063.31
2023-10-09T19:51:05.469Z,102058.38
2023-10-09T19:53:53.495Z,102053.22
2023-10-09T19:56:43.908Z,102051.84
2023-10-09T19:59:32.197Z,102052.47
2023-10-09T20:02:18.664Z,102049.91
2023-10-09T20:05:07.216Z,102046.28
2023-10-09T20:07:56.365Z,102042.88
2023-10-09T20:10:43.242Z,102040.22
2023-10-09T20:13:29.537Z,102041.66
2023-10-09T20:16:18.161Z,102051.50
2023-10-09T20:19:09.329Z,102053.97
2023-10-09T20:21:56.169Z,102053.41
2023-10-09T20:24:42.457Z,102051.25
2023-10-09T20:27:31.572Z,102054.31
2023-10-09T20:30:18.139Z,102052.81
2023-10-09T20:33:06.971Z,102055.06
2023-10-09T20:35:57.306Z,102056.81
2023-10-09T20:38:43.739Z,102057.59
2023-10-09T20:41:32.837Z,102056.44
2023-10-09T20:44:19.792Z,102061.31
2023-10-09T20:47:06.031Z,102055.63
2023-10-09T20:49:58.475Z,102061.59
2023-10-09T20:52:48.116Z,102055.69
2023-10-09T20:55:34.661Z,102054.09
2023-10-09T20:58:21.902Z,102056.31
2023-10-09T21:01:15.493Z,102062.13
2023-10-09T21:04:04.576Z,102055.41
2023-10-09T21:06:54.449Z,102053.94
2023-10-09T21:09:40.918Z,102059.69
2023-10-09T21:12:27.410Z,102064.47
2023-10-09T21:15:15.031Z,102070.22
2023-10-09T21:18:01.561Z,102073.19
2023-10-09T21:20:48.147Z,102072.91
2023-10-09T21:23:35.956Z,102073.56
2023-10-09T21:26:25.004Z,102079.19
2023-10-09T21:29:12.776Z,102078.28
2023-10-09T21:31:59.445Z,102072.81
2023-10-09T21:34:47.183Z,102070.91
2023-10-09T21:37:33.738Z,102065.81
2023-10-09T21:40:29.128Z,102063.31
2023-10-09T21:43:18.578Z,102059.72
2023-10-09T21:46:08.702Z,102062.84
2023-10-09T21:48:55.085Z,102068.13
2023-10-09T21:51:42.322Z,102066.75
2023-10-09T21:54:30.307Z,102064.41
2023-10-09T21:57:18.944Z,102065.31
2023-10-09T22:00:12.866Z,102072.34
2023-10-09T22:02:59.599Z,102061.72
2023-10-09T22:05:47.414Z,102068.66
2023-10-09T22:08:36.024Z,102064.13
2023-10-09T22:11:22.680Z,102053.81
2023-10-09T22:14:10.721Z,102060.50
